CheckWX is a tool to help pilots better visualize weather data.  It is not intended as a substitute for an official pre-flight weather briefing.

16:55:18 UTC

EGLC TAF
London City Airport
London, United Kingdom
TAF EGLC 171402Z 1715/1721 19010KT 9999 SCT030 TEMPO 1715/1721 7000 SHRA PROB30 TEMPO 1715/1718 20015G25KT 4000 +SHRA BKN014

Oct-17@
15:00 UTC

Oct-17 @ 15:00 UTC

Oct-17@
21:00 UTC

Oct-17 @ 21:00 UTC

TAF EGLC 171402Z 1715/1721 19010KT 9999 SCT030
Wind
  • 190° at 10 KTS
Cloud Levels
  • Scattered at 3,000' AGL

Oct-17@
15:00 UTC

Oct-17 @ 15:00 UTC

Oct-17@
18:00 UTC

Oct-17 @ 18:00 UTC

PROB30 TEMPO 1715/1718 20015G25KT 4000 +SHRA BKN014

Temporary - 30% Likelihood

Temporary - 30% Likelihood during this time.

Wind
  • 200° at 15 KTS
  • {Gusting to 25 KTS
Conditions
Heavy Rain
Cloud Levels
  • Broken at 1,400' AGL

Oct-17@
15:00 UTC

Oct-17 @ 15:00 UTC

Oct-17@
21:00 UTC

Oct-17 @ 21:00 UTC

TEMPO 1715/1721 7000 SHRA

Temporary

Temporary Changes expected for less than half the time period

Conditions
Rain